WetterOnline ( https://www.wetteronline.de )

Wetter aktuell Putgarten

Aktuelles Wetter: Kap Arkona/Rügen (42m)

6-stündlich | Neueste Meldungen
Ortszeit Temperatur Wetter
Mo, 08.08. 2:00 14.7° C bewölkt
So, 07.08. 20:00 16.9° C bedeckt
So, 07.08. 14:00 18.3° C wolkig
So, 07.08. 8:00 15.9° C wolkenlos
So, 07.08. 2:00 15.8° C wolkenlos
Sa, 06.08. 20:00 17.5° C wolkenlos
Sa, 06.08. 14:00 17.6° C wolkenlos
Sa, 06.08. 8:00 14.9° C fast wolkenlos
Ortszeit Temperatur Wetter
Mo, 08.08. 4:00 15.0° C bedeckt
Mo, 08.08. 3:50 15.0° C bedeckt
Mo, 08.08. 3:40 14.8° C bedeckt
Mo, 08.08. 3:30 14.8° C bedeckt
Mo, 08.08. 3:20 14.8° C bedeckt
Mo, 08.08. 3:10 14.8° C bedeckt
Mo, 08.08. 3:00 14.5° C bedeckt
Mo, 08.08. 2:30 14.2° C wolkig
Mo, 08.08. 2:00 14.7° C bewölkt
Mo, 08.08. 1:30 14.9° C bewölkt
Mo, 08.08. 1:00 15.6° C wolkig
Ortszeit Relative Feuchte Sichtweite
Mo, 08.08. 2:00 78% 30 km
So, 07.08. 20:00 70% 40 km
So, 07.08. 14:00 62% 40 km
So, 07.08. 8:00 57% 35 km
So, 07.08. 2:00 68% 40 km
Sa, 06.08. 20:00 64% 45 km
Sa, 06.08. 14:00 57% 60 km
Sa, 06.08. 8:00 70% 35 km
Ortszeit Relative Feuchte Sichtweite
Mo, 08.08. 4:00 72% 35 km
Mo, 08.08. 3:50 72% -
Mo, 08.08. 3:40 73% -
Mo, 08.08. 3:30 75% 30 km
Mo, 08.08. 3:20 75% -
Mo, 08.08. 3:10 75% -
Mo, 08.08. 3:00 76% 30 km
Mo, 08.08. 2:30 79% 30 km
Mo, 08.08. 2:00 78% 30 km
Mo, 08.08. 1:30 81% 30 km
Mo, 08.08. 1:00 78% 35 km
Ortszeit Niederschlagsmenge Niederschlagsart
Mo, 08.08. 2:00 0.0 l/m2 in 6 Std. -
So, 07.08. 20:00 0.0 l/m2 in 12 Std. -
So, 07.08. 14:00 0.0 l/m2 in 6 Std. -
So, 07.08. 8:00 0.0 l/m2 in 12 Std. -
So, 07.08. 2:00 0.0 l/m2 in 6 Std. -
Sa, 06.08. 20:00 0.1 l/m2 in 12 Std. Niederschlag
Sa, 06.08. 14:00 0.0 l/m2 in 6 Std. -
Sa, 06.08. 8:00 0.0 l/m2 in 12 Std. -
Ortszeit Niederschlagsmenge Niederschlagsart
Mo, 08.08. 4:00 0.0 l/m2 in 1 Std. -
Mo, 08.08. 3:50 keine Meldung -
Mo, 08.08. 3:40 keine Meldung -
Mo, 08.08. 3:30 0.0 l/m2 in 1 Std. -
Mo, 08.08. 3:20 keine Meldung -
Mo, 08.08. 3:10 keine Meldung -
Mo, 08.08. 3:00 0.0 l/m2 in 1 Std. -
Mo, 08.08. 2:30 0.0 l/m2 in 1 Std. -
Mo, 08.08. 2:00 0.0 l/m2 in 1 Std. -
Mo, 08.08. 1:30 0.0 l/m2 in 1 Std. -
Mo, 08.08. 1:00 0.0 l/m2 in 1 Std. -
Ortszeit Stärke Spitze Richtung
km/h Bft. km/h Grad Sektor
Mo, 08.08. 2:00 14 3 18 230° SW
So, 07.08. 20:00 9 2 30 300° NW
So, 07.08. 14:00 18 3 32 290° W
So, 07.08. 8:00 11 2 28 290° W
So, 07.08. 2:00 14 3 40 310° NW
Sa, 06.08. 20:00 25 4 50 280° W
Sa, 06.08. 14:00 26 4 52 280° W
Sa, 06.08. 8:00 26 4 48 300° NW
Ortszeit Stärke Spitze Richtung
km/h Bft. km/h Grad Sektor
Mo, 08.08. 4:00 13 3 15 250° W
Mo, 08.08. 3:50 13 3 - 250° W
Mo, 08.08. 3:40 13 3 - 240° SW
Mo, 08.08. 3:30 13 3 15 240° SW
Mo, 08.08. 3:20 13 3 - 240° SW
Mo, 08.08. 3:10 13 3 - 240° SW
Mo, 08.08. 3:00 13 3 17 230° SW
Mo, 08.08. 2:30 14 3 14 230° SW
Mo, 08.08. 2:00 14 3 14 230° SW
Mo, 08.08. 1:30 14 3 14 230° SW
Mo, 08.08. 1:00 11 2 13 220° SW
Ortszeit Untergrenze Bedeckung Gattung
total tief tief mittel hoch
Mo, 08.08. 2:00 3300 m 7/8 7/8 - - -
So, 07.08. 20:00 3000 m 8/8 8/8 - - -
So, 07.08. 14:00 4500 m 8/8 8/8 - - -
So, 07.08. 8:00 - 0/8 0/8 - - -
So, 07.08. 2:00 - 0/8 0/8 - - -
Sa, 06.08. 20:00 - 0/8 0/8 - - -
Sa, 06.08. 14:00 - 0/8 0/8 - - -
Sa, 06.08. 8:00 660 m 1/8 1/8 - - -
Ortszeit Bedeckungsgrad in Achtel und Wolkenuntergrenze
Mo, 08.08. 4:00 7(4200m) 8(4800m)
Mo, 08.08. 3:50 7(4200m) 8(4800m)
Mo, 08.08. 3:40 8
Mo, 08.08. 3:30 7(3900m) 8(4800m)
Mo, 08.08. 3:20 7(3900m) 8(4800m)
Mo, 08.08. 3:10 8
Mo, 08.08. 3:00 4(3000m) 8(4500m)
Mo, 08.08. 2:30 2(1800m) 6(3000m) 6(3600m)
Mo, 08.08. 2:00 1(3300m) 7(4200m)
Mo, 08.08. 1:30 4(1800m) 8(3900m) 8(5700m)
Mo, 08.08. 1:00 1(1800m) 8(3600m) 8(5700m)
Ortszeit Luftdruck NN (hPa) Tendenz (hPa in 3 Std.)
Mo, 08.08. 2:00 1025 + 0,2
So, 07.08. 20:00 1024 - 0,4
So, 07.08. 14:00 1025 - 0,9
So, 07.08. 8:00 1026 + 0,6
So, 07.08. 2:00 1026 + 0,1
Sa, 06.08. 20:00 1025 + 0,1
Sa, 06.08. 14:00 1025 + 0,6
Sa, 06.08. 8:00 1022 + 1,9
Ortszeit Luftdruck NN (hPa) Tendenz (hPa in 3 Std.)
Mo, 08.08. 4:00 1024 - 0,1
Mo, 08.08. 3:50 1024 keine Meldung
Mo, 08.08. 3:40 1024 keine Meldung
Mo, 08.08. 3:30 1025 + 0,1
Mo, 08.08. 3:20 1025 keine Meldung
Mo, 08.08. 3:10 1025 keine Meldung
Mo, 08.08. 3:00 1025 0,0
Mo, 08.08. 2:30 1025 + 0,3
Mo, 08.08. 2:00 1025 + 0,2
Mo, 08.08. 1:30 1025 + 0,2
Mo, 08.08. 1:00 1025 + 0,2
Ortszeit Schneehöhe (cm)
Mo, 08.08. 2:00 0
So, 07.08. 20:00 0
So, 07.08. 14:00 0
So, 07.08. 8:00 0
So, 07.08. 2:00 0
Sa, 06.08. 20:00 0
Sa, 06.08. 14:00 0
Sa, 06.08. 8:00 0
Ortszeit Schneehöhe (cm)
Mo, 08.08. 4:00 0
Mo, 08.08. 3:50 0
Mo, 08.08. 3:40 0
Mo, 08.08. 3:30 0
Mo, 08.08. 3:20 0
Mo, 08.08. 3:10 0
Mo, 08.08. 3:00 0
Mo, 08.08. 2:30 0
Mo, 08.08. 2:00 0
Mo, 08.08. 1:30 0
Mo, 08.08. 1:00 0
Link zu dieser Seite / Seite empfehlen

Das Wetter in ...